Aeroporto :
LOGIN :

Iscrizione | Disclaimer

   EN    FR    IT 

 










Sommario :    VFR   VFR Marginale   IFR   IFR Intensivo   IFR Molto Intensivo
Visibilità : 
Base nubi : 
>= 8 km
>= 3000ft
5 / 8 km
1000 / 3000 ft
1500m / 5 km
500 / 1000 ft
800 / 1500m
200 / 500 ft
< 800m
< 200 ft
Simboli :   Temporali  Nebbia  Neve Forte  Precipitazioni Forti  Vento > 20 kt
SIGMETs :   Varie  Temporali  Ghiacco  Turbolenza  Onda orograficha  Ceneri Vulcaniche







- Altitudine del aeroporto : 1947 ft
- Codice IATA : OBF


EDMO - Oberpfaffenhofen

ULTIMO METAR :
  • 191620Z AUTO 04012KT 9999 // NCD 20/00 Q1026

METARs OBSOLETI :
  • 191550Z AUTO 03013KT 9999 // NCD 20/M00 Q1026
  • 191520Z AUTO 04013KT 9999 // NCD 20/00 Q1026
  • 191450Z AUTO 05009KT 360V090 9999 // NCD 20/M01 Q1026
  • 191420Z 06007G18KT 350V120 CAVOK 21/00 Q1026
  • 191350Z AUTO 04007KT 360V090 9999 // NCD 20/00 Q1026

Previsioni scadute.
Nessun NOTAM noto per questo aeroporto.



MetMap, La meteo Aeronautica in un colpo d'occhio ! - Copyright ORBIFLY Dicembre 2007 - Disclaimer

ORBIFLY MET'MAP TEAM :

Programmazione e sviluppo : Alexandra Zaïnal
Concezione e sviluppo : Baudouin d'Aumeries
Co-Programmazione e sviluppo : Marc-Olivier Méhu
Supporto tecnico e logistico : Manuel Goepfert
Aiuto per la traduzione : Arnaldo La Scala

Contatto : metmap@orbifly.com




FONTI E CREDITI :

   NOAA